Hovedside
METAR-TAF:

METAR-TAF

Lufthavner :

Roskilde, Danmark

Roskilde lufthavn

breddegrad: 55-35N, lengdegrad: 012-08E, høyde over havet: 44 m

Gjeldene værobservasjon

Denne rapporten ble laget for 23 minutter siden, klokken 20:20 UTC
Vind 6 kt fra Vest
Temperatur 6°C
Luftfuktighet 87%
Trykk 1025 hPa
Sikt 10 km eller mer

METAR: EKRK 262020Z AUTO 26006KT 9999NDV NCD 06/04 Q1025

Tid: 22:43 (20:43 UTC)

Varsel

Denne rapporten ble laget for 47 minutter siden, klokken 19:56 UTC
Varsel gyldig fra 26. klokken 21 UTC til 27. klokken 06 UTC
Vind 8 kt fra Vest
Sikt 10 km eller mer
ingen skyer under 1500 m og ingen bygeskyer
Blir
fra 26. klokken 22 UTC til 26. klokken 24 UTC
Sikt: 0400 m
i en høyde av 200 ft
tåke
Midlertidig
fra 27. klokken 00 UTC til 27. klokken 03 UTC
Sikt: 4000 m
Spredte skyer i en høyde av 500 ft
dis

TAF: EKRK 261956Z 2621/2706 27008KT CAVOK BECMG 2622/2624 0400 FG VV002 TEMPO 2700/2703 4000 BR SCT005

Værobservasjoner og værvarsel for over 4000 flyplasser (METAR- og TAF-rapporter).

Tilgjengelige stasjoner er representert av de røde og gule prikkene på kartet.

Hold musepekeren over prikken for å se navnet på stasjonen.

Klikk så for å se værobservasjoner og -varsler.

For å forandre kartet kan du klikke på den grønne knappen med svart kryss for å zoome inn, på den grønne knappen med strek for å zoome ut, eller på de grønne pilene for å se tilstøtende kart.


METAR-TAF: